createdAt,value
2022-12-03T00:02:15.692Z,102765.16
2022-12-03T00:04:42.261Z,102759.69
2022-12-03T00:07:09.292Z,102760.63
2022-12-03T00:09:36.985Z,102757.13
2022-12-03T00:12:04.514Z,102757.13
2022-12-03T00:14:31.532Z,102753.59
2022-12-03T00:16:58.109Z,102761.56
2022-12-03T00:19:24.755Z,102756.47
2022-12-03T00:21:51.333Z,102762.41
2022-12-03T00:24:17.897Z,102753.59
2022-12-03T00:26:44.479Z,102757.19
2022-12-03T00:29:11.334Z,102743.47
2022-12-03T00:31:37.965Z,102747.53
2022-12-03T00:34:04.602Z,102744.81
2022-12-03T00:36:31.658Z,102743.22
2022-12-03T00:38:58.222Z,102740.44
2022-12-03T00:41:25.254Z,102743.09
2022-12-03T00:43:52.331Z,102743.09
2022-12-03T00:46:21.549Z,102739.59
2022-12-03T00:48:48.519Z,102728.34
2022-12-03T00:51:16.065Z,102735.25
2022-12-03T00:53:43.071Z,102735.25
2022-12-03T00:56:10.180Z,102736.19
2022-12-03T00:58:37.182Z,102729.09
2022-12-03T01:01:03.767Z,102733.47
2022-12-03T01:03:30.804Z,102731.75
2022-12-03T01:05:57.759Z,102724.66
2022-12-03T01:08:24.336Z,102709.78
2022-12-03T01:10:51.366Z,102721.25
2022-12-03T01:13:18.861Z,102715.00
2022-12-03T01:15:45.887Z,102717.66
2022-12-03T01:18:13.043Z,102721.25
2022-12-03T01:20:40.064Z,102716.78
2022-12-03T01:23:07.276Z,102714.22
2022-12-03T01:25:33.919Z,102716.78
2022-12-03T01:28:01.089Z,102718.59
2022-12-03T01:30:27.772Z,102710.66
2022-12-03T01:32:54.777Z,102714.22
2022-12-03T01:35:21.887Z,102721.25
2022-12-03T01:37:49.826Z,102715.94
2022-12-03T01:40:20.028Z,102709.78
2022-12-03T01:42:47.164Z,102708.94
2022-12-03T01:45:22.335Z,102708.94
2022-12-03T01:47:48.932Z,102697.66
2022-12-03T01:50:17.966Z,102705.44
2022-12-03T01:52:45.140Z,102698.50
2022-12-03T01:55:17.635Z,102690.63
2022-12-03T01:57:51.138Z,102696.63
2022-12-03T02:00:21.019Z,102700.97
2022-12-03T02:02:51.829Z,102697.56
2022-12-03T02:05:21.436Z,102690.47
2022-12-03T02:07:48.490Z,102693.13
2022-12-03T02:10:17.827Z,102691.41
2022-12-03T02:12:50.569Z,102693.13
2022-12-03T02:15:17.243Z,102687.91
2022-12-03T02:17:44.966Z,102696.78
2022-12-03T02:20:13.239Z,102684.41
2022-12-03T02:22:48.972Z,102694.91
2022-12-03T02:25:23.697Z,102688.75
2022-12-03T02:27:51.278Z,102694.06
2022-12-03T02:30:22.206Z,102698.50
2022-12-03T02:32:50.182Z,102682.69
2022-12-03T02:35:20.624Z,102680.91
2022-12-03T02:37:58.350Z,102675.59
2022-12-03T02:40:29.539Z,102680.03
2022-12-03T02:42:59.803Z,102676.63
2022-12-03T02:45:33.197Z,102677.31
2022-12-03T02:48:07.404Z,102672.19
2022-12-03T02:50:37.837Z,102664.53
2022-12-03T02:53:08.497Z,102680.91
2022-12-03T02:55:37.346Z,102664.22
2022-12-03T02:58:05.839Z,102644.44
2022-12-03T03:00:33.938Z,102665.38
2022-12-03T03:03:02.636Z,102670.38
2022-12-03T03:05:29.706Z,102655.72
2022-12-03T03:07:58.511Z,102658.00
2022-12-03T03:10:26.935Z,102665.09
2022-12-03T03:12:55.318Z,102657.22
2022-12-03T03:15:24.009Z,102654.56
2022-12-03T03:17:51.564Z,102647.41
2022-12-03T03:20:18.961Z,102643.34
2022-12-03T03:22:45.634Z,102651.00
2022-12-03T03:25:16.715Z,102644.84
2022-12-03T03:27:44.491Z,102654.50
2022-12-03T03:30:12.638Z,102648.50
2022-12-03T03:32:40.168Z,102653.63
2022-12-03T03:35:10.436Z,102656.28
2022-12-03T03:37:37.488Z,102646.53
2022-12-03T03:40:04.313Z,102655.44
2022-12-03T03:42:30.927Z,102640.56
2022-12-03T03:44:58.454Z,102645.97
2022-12-03T03:47:25.735Z,102645.22
2022-12-03T03:49:53.093Z,102655.44
2022-12-03T03:52:20.662Z,102636.25
2022-12-03T03:54:48.022Z,102641.72
2022-12-03T03:57:15.044Z,102632.81
2022-12-03T03:59:42.179Z,102636.25
2022-12-03T04:02:21.365Z,102635.38
2022-12-03T04:04:48.669Z,102630.81
2022-12-03T04:07:16.708Z,102624.88
2022-12-03T04:09:44.077Z,102625.53
2022-12-03T04:12:31.972Z,102626.50
2022-12-03T04:14:59.286Z,102621.38
2022-12-03T04:17:26.377Z,102617.88
2022-12-03T04:19:53.393Z,102621.38
2022-12-03T04:22:38.697Z,102625.66
2022-12-03T04:25:24.852Z,102613.41
2022-12-03T04:28:10.127Z,102612.56
2022-12-03T04:30:36.749Z,102625.66
2022-12-03T04:33:21.950Z,102609.16
2022-12-03T04:35:49.163Z,102621.38
2022-12-03T04:38:16.541Z,102611.81
2022-12-03T04:41:04.819Z,102621.38
2022-12-03T04:43:55.095Z,102606.50
2022-12-03T04:46:22.378Z,102614.44
2022-12-03T04:48:48.971Z,102616.16
2022-12-03T04:51:15.548Z,102610.00
2022-12-03T04:53:46.211Z,102611.03
2022-12-03T04:56:13.503Z,102607.63
2022-12-03T04:58:40.663Z,102607.69
2022-12-03T05:01:07.278Z,102613.69
2022-12-03T05:03:33.846Z,102613.50
2022-12-03T05:06:01.067Z,102601.47
2022-12-03T05:08:27.619Z,102602.41
2022-12-03T05:10:54.620Z,102609.16
2022-12-03T05:13:21.646Z,102588.59
2022-12-03T05:15:48.231Z,102609.16
2022-12-03T05:18:15.276Z,102611.81
2022-12-03T05:20:41.825Z,102609.25
2022-12-03T05:23:13.549Z,102607.44
2022-12-03T05:25:40.966Z,102607.44
2022-12-03T05:28:08.558Z,102598.72
2022-12-03T05:30:35.915Z,102601.56
2022-12-03T05:33:02.650Z,102589.25
2022-12-03T05:35:29.975Z,102588.31
2022-12-03T05:37:57.048Z,102590.03
2022-12-03T05:40:24.038Z,102595.22
2022-12-03T05:42:53.731Z,102598.72
2022-12-03T05:45:32.160Z,102590.97
2022-12-03T05:47:59.583Z,102590.03
2022-12-03T05:50:29.511Z,102588.13
2022-12-03T05:52:57.402Z,102585.88
2022-12-03T05:55:25.219Z,102582.06
2022-12-03T05:57:51.810Z,102583.78
2022-12-03T06:00:20.668Z,102578.47
2022-12-03T06:02:48.429Z,102582.06
2022-12-03T06:05:16.142Z,102578.47
2022-12-03T06:07:43.632Z,102569.13
2022-12-03T06:10:13.067Z,102573.19
2022-12-03T06:12:40.386Z,102571.78
2022-12-03T06:15:08.056Z,102572.41
2022-12-03T06:17:35.153Z,102565.31
2022-12-03T06:20:02.762Z,102574.22
2022-12-03T06:22:29.320Z,102557.47
2022-12-03T06:24:58.583Z,102557.59
2022-12-03T06:27:28.702Z,102563.75
2022-12-03T06:30:02.611Z,102562.75
2022-12-03T06:32:29.656Z,102559.25
2022-12-03T06:34:56.384Z,102556.72
2022-12-03T06:37:23.115Z,102560.31
2022-12-03T06:39:49.685Z,102554.94
2022-12-03T06:42:16.665Z,102557.69
2022-12-03T06:44:43.705Z,102554.16
2022-12-03T06:47:10.310Z,102556.72
2022-12-03T06:49:37.482Z,102559.47
2022-12-03T06:52:04.150Z,102551.78
2022-12-03T06:54:30.729Z,102555.03
2022-12-03T06:56:57.339Z,102562.28
2022-12-03T06:59:24.409Z,102557.09
2022-12-03T07:01:50.959Z,102559.63
2022-12-03T07:04:17.534Z,102562.22
2022-12-03T07:06:44.077Z,102560.41
2022-12-03T07:09:11.281Z,102563.91
2022-12-03T07:11:40.665Z,102573.72
2022-12-03T07:14:11.058Z,102567.84
2022-12-03T07:16:38.091Z,102568.59
2022-12-03T07:19:06.073Z,102576.38
2022-12-03T07:21:48.267Z,102568.53
2022-12-03T07:24:14.782Z,102564.34
2022-12-03T07:26:41.328Z,102571.19
2022-12-03T07:29:08.000Z,102571.19
2022-12-03T07:31:34.618Z,102572.19
2022-12-03T07:34:01.770Z,102567.75
2022-12-03T07:36:28.860Z,102568.59
2022-12-03T07:38:55.393Z,102566.06
2022-12-03T07:41:21.948Z,102572.19
2022-12-03T07:43:48.982Z,102576.56
2022-12-03T07:46:15.673Z,102570.31
2022-12-03T07:48:42.286Z,102571.25
2022-12-03T07:51:10.534Z,102575.78
2022-12-03T07:53:40.987Z,102575.78
2022-12-03T07:56:08.124Z,102581.75
2022-12-03T07:58:34.677Z,102585.28
2022-12-03T08:01:01.215Z,102571.25
2022-12-03T08:03:28.307Z,102575.69
2022-12-03T08:05:54.796Z,102581.84
2022-12-03T08:08:21.376Z,102569.69
2022-12-03T08:10:47.960Z,102577.63
2022-12-03T08:13:17.182Z,102581.84
2022-12-03T08:15:44.737Z,102563.75
2022-12-03T08:18:19.085Z,102572.19
2022-12-03T08:20:48.419Z,102566.91
2022-12-03T08:23:20.913Z,102563.50
2022-12-03T08:25:49.669Z,102569.56
2022-12-03T08:28:21.758Z,102571.44
2022-12-03T08:31:12.494Z,102560.06
2022-12-03T08:33:40.605Z,102568.09
2022-12-03T08:36:18.085Z,102557.50
2022-12-03T08:39:00.639Z,102557.44
2022-12-03T08:41:47.840Z,102556.66
2022-12-03T08:44:28.601Z,102558.38
2022-12-03T08:47:13.090Z,102547.84
2022-12-03T08:49:41.464Z,102539.22
2022-12-03T08:52:21.168Z,102547.94
2022-12-03T08:54:56.014Z,102542.81
2022-12-03T08:57:33.379Z,102551.34
2022-12-03T09:00:12.520Z,102553.06
2022-12-03T09:02:45.990Z,102552.31
2022-12-03T09:05:26.291Z,102543.66
2022-12-03T09:07:53.425Z,102556.56
2022-12-03T09:10:20.013Z,102555.72
2022-12-03T09:12:46.755Z,102546.91
2022-12-03T09:15:13.812Z,102538.47
2022-12-03T09:17:40.879Z,102553.16
2022-12-03T09:20:09.753Z,102556.66
2022-12-03T09:22:36.836Z,102548.78
2022-12-03T09:25:03.991Z,102545.47
2022-12-03T09:27:30.977Z,102541.88
2022-12-03T09:29:57.775Z,102539.16
2022-12-03T09:32:24.900Z,102547.09
2022-12-03T09:34:51.947Z,102545.28
2022-12-03T09:37:18.682Z,102543.75
2022-12-03T09:39:45.211Z,102555.88
2022-12-03T09:42:12.523Z,102554.19
2022-12-03T09:44:39.192Z,102541.88
2022-12-03T09:47:06.810Z,102541.28
2022-12-03T09:49:37.231Z,102548.13
2022-12-03T09:52:06.528Z,102546.50
2022-12-03T09:54:34.858Z,102548.97
2022-12-03T09:57:04.221Z,102555.13
2022-12-03T09:59:33.308Z,102549.22
2022-12-03T10:02:00.473Z,102556.06
2022-12-03T10:04:28.904Z,102544.69
2022-12-03T10:06:58.277Z,102549.91
2022-12-03T10:09:28.122Z,102549.91
2022-12-03T10:11:57.146Z,102553.41
2022-12-03T10:14:23.923Z,102543.75
2022-12-03T10:16:50.708Z,102544.63
2022-12-03T10:19:27.650Z,102536.66
2022-12-03T10:21:55.606Z,102534.97
2022-12-03T10:24:25.762Z,102536.66
2022-12-03T10:26:55.820Z,102527.19
2022-12-03T10:29:34.574Z,102532.50
2022-12-03T10:32:09.410Z,102533.16
2022-12-03T10:34:41.458Z,102520.09
2022-12-03T10:37:18.594Z,102515.75
2022-12-03T10:40:00.762Z,102518.22
2022-12-03T10:42:31.064Z,102514.81
2022-12-03T10:45:22.693Z,102508.56
2022-12-03T10:48:10.768Z,102513.03
2022-12-03T10:50:38.005Z,102504.13
2022-12-03T10:53:04.843Z,102511.13
2022-12-03T10:55:38.709Z,102493.94
2022-12-03T10:58:05.629Z,102497.97
2022-12-03T11:00:32.151Z,102491.00
2022-12-03T11:02:58.760Z,102494.22
2022-12-03T11:05:27.514Z,102494.22
2022-12-03T11:07:54.744Z,102479.53
2022-12-03T11:10:22.357Z,102478.59
2022-12-03T11:13:27.622Z,102478.34
2022-12-03T11:15:54.596Z,102480.13
2022-12-03T11:18:36.641Z,102480.06
2022-12-03T11:21:11.821Z,102485.34
2022-12-03T11:24:03.455Z,102490.63
2022-12-03T11:26:29.902Z,102480.91
2022-12-03T11:29:00.263Z,102468.78
2022-12-03T11:31:36.947Z,102475.78
2022-12-03T11:34:18.899Z,102476.47
2022-12-03T11:37:10.448Z,102479.97
2022-12-03T11:39:52.774Z,102472.09
2022-12-03T11:42:28.632Z,102467.56
2022-12-03T11:45:04.871Z,102466.72
2022-12-03T11:47:40.655Z,102458.88
2022-12-03T11:50:30.857Z,102456.41
2022-12-03T11:53:02.399Z,102464.06
2022-12-03T11:55:33.133Z,102457.16
2022-12-03T11:58:02.505Z,102447.34
2022-12-03T12:00:29.585Z,102449.13
2022-12-03T12:02:57.726Z,102442.97
2022-12-03T12:05:33.662Z,102452.53
2022-12-03T12:08:01.242Z,102442.97
2022-12-03T12:10:50.988Z,102441.28
2022-12-03T12:13:32.431Z,102440.25
2022-12-03T12:16:01.072Z,102432.31
2022-12-03T12:18:44.844Z,102434.94
2022-12-03T12:21:42.054Z,102420.88
2022-12-03T12:24:47.082Z,102418.22
2022-12-03T12:27:13.572Z,102414.72
2022-12-03T12:29:41.859Z,102410.19
2022-12-03T12:32:11.845Z,102409.34
2022-12-03T12:34:46.449Z,102404.88
2022-12-03T12:37:36.061Z,102406.69
2022-12-03T12:40:12.817Z,102407.53
2022-12-03T12:42:50.096Z,102404.88
2022-12-03T12:45:22.002Z,102406.69
2022-12-03T12:47:57.466Z,102410.19
2022-12-03T12:50:24.592Z,102409.34
2022-12-03T12:52:54.701Z,102409.34
2022-12-03T12:55:23.012Z,102401.56
2022-12-03T12:57:49.842Z,102403.94
2022-12-03T13:00:22.452Z,102398.75
2022-12-03T13:02:58.359Z,102395.34
2022-12-03T13:05:27.793Z,102399.59
2022-12-03T13:07:54.971Z,102389.94
2022-12-03T13:10:34.022Z,102393.44
2022-12-03T13:13:25.082Z,102387.28
2022-12-03T13:15:56.893Z,102383.72
2022-12-03T13:18:25.783Z,102375.19
2022-12-03T13:20:53.714Z,102382.19
2022-12-03T13:23:28.875Z,102386.44
2022-12-03T13:26:03.711Z,102383.78
2022-12-03T13:28:36.081Z,102375.09
2022-12-03T13:31:23.126Z,102379.34
2022-12-03T13:33:51.615Z,102375.09
2022-12-03T13:36:20.744Z,102370.56
2022-12-03T13:38:47.912Z,102377.56
2022-12-03T13:41:37.417Z,102371.50
2022-12-03T13:44:16.795Z,102361.28
2022-12-03T13:46:44.277Z,102375.00
2022-12-03T13:49:18.578Z,102379.34
2022-12-03T13:51:45.268Z,102371.41
2022-12-03T13:54:16.354Z,102369.72
2022-12-03T13:56:43.620Z,102366.28
2022-12-03T13:59:10.855Z,102361.75
2022-12-03T14:01:37.475Z,102353.06
2022-12-03T14:04:04.404Z,102362.53
2022-12-03T14:06:31.024Z,102361.69
2022-12-03T14:08:57.687Z,102354.69
2022-12-03T14:11:42.807Z,102356.47
2022-12-03T14:14:09.587Z,102355.72
2022-12-03T14:16:38.696Z,102362.63
2022-12-03T14:19:06.210Z,102351.53
2022-12-03T14:21:32.781Z,102353.06
2022-12-03T14:23:59.314Z,102350.31
2022-12-03T14:26:26.425Z,102346.16
2022-12-03T14:28:53.074Z,102346.91
2022-12-03T14:31:19.676Z,102341.81
2022-12-03T14:33:46.235Z,102354.00
2022-12-03T14:36:12.735Z,102350.50
2022-12-03T14:38:39.273Z,102342.56
2022-12-03T14:41:25.909Z,102336.50
2022-12-03T14:43:52.495Z,102340.69
2022-12-03T14:46:19.106Z,102333.69
2022-12-03T14:48:46.258Z,102337.19
2022-12-03T14:51:12.781Z,102336.22
2022-12-03T14:53:39.301Z,102333.69
2022-12-03T14:56:05.843Z,102330.38
2022-12-03T14:58:34.235Z,102320.84
2022-12-03T15:01:00.879Z,102331.88
2022-12-03T15:03:27.579Z,102313.16
2022-12-03T15:05:54.083Z,102333.69
2022-12-03T15:08:20.666Z,102332.81
2022-12-03T15:10:47.733Z,102325.81
2022-12-03T15:13:14.288Z,102331.97
2022-12-03T15:15:40.806Z,102333.94
2022-12-03T15:18:07.860Z,102335.47
2022-12-03T15:20:35.625Z,102331.97
2022-12-03T15:23:02.173Z,102328.47
2022-12-03T15:25:28.701Z,102331.97
2022-12-03T15:27:55.307Z,102321.19
2022-12-03T15:30:22.294Z,102322.63
2022-12-03T15:32:48.800Z,102332.16
2022-12-03T15:35:18.527Z,102338.31
2022-12-03T15:37:45.646Z,102333.94
2022-12-03T15:40:12.849Z,102335.56
2022-12-03T15:42:39.562Z,102339.91
2022-12-03T15:45:09.567Z,102338.38
2022-12-03T15:47:40.074Z,102338.31
2022-12-03T15:50:07.701Z,102339.06
2022-12-03T15:52:34.922Z,102340.84
2022-12-03T15:55:02.105Z,102337.44
2022-12-03T15:57:29.615Z,102335.75
2022-12-03T15:59:56.674Z,102335.88
2022-12-03T16:02:23.745Z,102336.59
2022-12-03T16:04:50.365Z,102328.97
2022-12-03T16:07:17.358Z,102336.50
2022-12-03T16:09:43.925Z,102337.34
2022-12-03T16:12:10.474Z,102326.31
2022-12-03T16:14:37.572Z,102332.16
2022-12-03T16:17:04.131Z,102339.16
2022-12-03T16:19:30.649Z,102333.31
2022-12-03T16:21:57.758Z,102337.53
2022-12-03T16:24:24.388Z,102342.66
2022-12-03T16:26:50.919Z,102348.03
2022-12-03T16:29:17.524Z,102348.88
2022-12-03T16:31:44.305Z,102345.38
2022-12-03T16:34:10.892Z,102336.59
2022-12-03T16:36:37.472Z,102339.16
2022-12-03T16:39:05.356Z,102335.75
2022-12-03T16:41:31.902Z,102337.44
2022-12-03T16:43:58.722Z,102340.09
2022-12-03T16:46:28.017Z,102339.16
2022-12-03T16:48:57.858Z,102333.94
2022-12-03T16:51:28.002Z,102332.16
2022-12-03T16:53:55.055Z,102313.44
2022-12-03T16:56:21.625Z,102333.09
2022-12-03T16:58:48.709Z,102332.25
2022-12-03T17:01:15.339Z,102329.50
2022-12-03T17:03:42.320Z,102329.59
2022-12-03T17:06:08.925Z,102328.78
2022-12-03T17:08:35.448Z,102326.13
2022-12-03T17:11:02.021Z,102319.41
2022-12-03T17:13:29.061Z,102323.47
2022-12-03T17:15:55.646Z,102320.94
2022-12-03T17:18:22.997Z,102321.78
2022-12-03T17:20:49.699Z,102323.56
2022-12-03T17:23:17.738Z,102330.84
2022-12-03T17:25:44.493Z,102330.66
2022-12-03T17:28:11.066Z,102330.66
2022-12-03T17:30:37.669Z,102331.88
2022-12-03T17:33:04.248Z,102334.16
2022-12-03T17:35:31.112Z,102324.78
2022-12-03T17:37:58.181Z,102333.41
2022-12-03T17:40:25.189Z,102330.84
2022-12-03T17:42:51.858Z,102334.25
2022-12-03T17:45:18.416Z,102332.56
2022-12-03T17:47:44.960Z,102335.09
2022-12-03T17:50:11.912Z,102327.25
2022-12-03T17:52:38.457Z,102322.91
2022-12-03T17:55:18.060Z,102330.75
2022-12-03T17:57:50.429Z,102334.34
2022-12-03T18:00:18.363Z,102324.88
2022-12-03T18:02:45.269Z,102333.50
2022-12-03T18:05:11.853Z,102332.63
2022-12-03T18:07:38.427Z,102321.28
2022-12-03T18:10:06.011Z,102315.31
2022-12-03T18:12:32.605Z,102324.78
2022-12-03T18:14:59.725Z,102321.97
2022-12-03T18:17:26.270Z,102311.38
2022-12-03T18:19:53.551Z,102304.56
2022-12-03T18:22:20.550Z,102308.81
2022-12-03T18:24:51.471Z,102294.63
2022-12-03T18:27:19.946Z,102308.72
2022-12-03T18:29:46.489Z,102306.16
2022-12-03T18:32:27.823Z,102301.72
2022-12-03T18:34:56.537Z,102294.91
2022-12-03T18:37:27.209Z,102295.84
2022-12-03T18:39:54.282Z,102297.56
2022-12-03T18:42:22.645Z,102300.97
2022-12-03T18:44:52.173Z,102295.75
2022-12-03T18:47:22.043Z,102283.47
2022-12-03T18:49:49.474Z,102293.13
2022-12-03T18:52:20.144Z,102292.44
2022-12-03T18:54:47.886Z,102302.84
2022-12-03T18:57:14.960Z,102292.28
2022-12-03T18:59:41.634Z,102295.94
2022-12-03T19:02:38.558Z,102286.50
2022-12-03T19:05:02.311Z,102289.81
2022-12-03T19:07:28.969Z,102287.28
2022-12-03T19:09:56.451Z,102291.50
2022-12-03T19:12:23.764Z,102284.41
2022-12-03T19:14:51.154Z,102282.72
2022-12-03T19:17:17.685Z,102287.91
2022-12-03T19:19:44.259Z,102277.41
2022-12-03T19:22:10.836Z,102274.91
2022-12-03T19:24:38.052Z,102274.91
2022-12-03T19:27:04.563Z,102279.44
2022-12-03T19:29:31.104Z,102272.44
2022-12-03T19:31:58.269Z,102289.72
2022-12-03T19:34:25.186Z,102279.22
2022-12-03T19:36:52.614Z,102289.72
2022-12-03T19:39:19.737Z,102282.72
2022-12-03T19:41:46.899Z,102275.94
2022-12-03T19:44:15.952Z,102281.88
2022-12-03T19:46:43.131Z,102278.38
2022-12-03T19:49:10.735Z,102280.81
2022-12-03T19:51:37.701Z,102277.41
2022-12-03T19:54:06.366Z,102278.28
2022-12-03T19:56:34.274Z,102273.91
2022-12-03T19:59:01.074Z,102280.06
2022-12-03T20:01:30.880Z,102272.97
2022-12-03T20:04:00.484Z,102272.34
2022-12-03T20:06:29.632Z,102280.06
2022-12-03T20:09:00.884Z,102264.31
2022-12-03T20:11:30.411Z,102257.41
2022-12-03T20:14:02.369Z,102267.91
2022-12-03T20:16:29.544Z,102261.09
2022-12-03T20:19:02.313Z,102265.34
2022-12-03T20:21:31.483Z,102267.91
2022-12-03T20:23:58.756Z,102275.84
2022-12-03T20:26:26.136Z,102274.13
2022-12-03T20:28:56.722Z,102272.34
2022-12-03T20:31:26.891Z,102273.19
2022-12-03T20:33:56.339Z,102266.28
2022-12-03T20:36:23.353Z,102265.53
2022-12-03T20:38:55.121Z,102272.34
2022-12-03T20:41:22.124Z,102267.91
2022-12-03T20:43:48.999Z,102267.91
2022-12-03T20:46:25.440Z,102244.81
2022-12-03T20:48:54.034Z,102247.00
2022-12-03T20:51:23.193Z,102249.66
2022-12-03T20:53:49.954Z,102256.47
2022-12-03T20:56:22.230Z,102257.31
2022-12-03T20:58:50.073Z,102248.63
2022-12-03T21:01:20.255Z,102251.34
2022-12-03T21:03:48.674Z,102246.16
2022-12-03T21:06:16.994Z,102248.63
2022-12-03T21:08:44.070Z,102236.50
2022-12-03T21:11:14.175Z,102238.31
2022-12-03T21:13:44.142Z,102236.34
2022-12-03T21:16:14.286Z,102241.63
2022-12-03T21:18:41.381Z,102235.47
2022-12-03T21:21:11.110Z,102237.28
2022-12-03T21:23:38.346Z,102232.91
2022-12-03T21:26:21.180Z,102234.53
2022-12-03T21:28:52.224Z,102237.19
2022-12-03T21:31:25.784Z,102233.78
2022-12-03T21:33:57.050Z,102234.53
2022-12-03T21:36:24.902Z,102220.81
2022-12-03T21:38:52.986Z,102214.03
2022-12-03T21:41:19.571Z,102227.72
2022-12-03T21:43:46.524Z,102231.03
2022-12-03T21:47:10.952Z,102227.63
2022-12-03T21:49:03.855Z,102225.06
2022-12-03T21:51:30.913Z,102229.44
2022-12-03T21:53:57.453Z,102237.28
2022-12-03T21:56:24.596Z,102243.50
2022-12-03T21:58:51.639Z,102235.66
2022-12-03T22:01:21.745Z,102239.06
2022-12-03T22:03:48.886Z,102231.22
2022-12-03T22:06:16.143Z,102225.34
2022-12-03T22:08:43.205Z,102232.25
2022-12-03T22:11:13.413Z,102224.13
2022-12-03T22:13:40.985Z,102226.19
2022-12-03T22:16:19.814Z,102217.41
2022-12-03T22:18:47.338Z,102232.91
2022-12-03T22:21:17.276Z,102212.97
2022-12-03T22:23:44.621Z,102225.06
2022-12-03T22:26:14.920Z,102222.44
2022-12-03T22:28:46.553Z,102212.34
2022-12-03T22:31:13.980Z,102226.03
2022-12-03T22:33:41.245Z,102223.38
2022-12-03T22:36:17.991Z,102208.94
2022-12-03T22:38:46.893Z,102219.03
2022-12-03T22:41:14.108Z,102218.94
2022-12-03T22:43:40.725Z,102206.19
2022-12-03T22:46:12.320Z,102219.88
2022-12-03T22:48:40.634Z,102215.63
2022-12-03T22:51:16.134Z,102219.22
2022-12-03T22:53:43.088Z,102225.34
2022-12-03T22:56:09.930Z,102217.81
2022-12-03T22:58:39.191Z,102216.00
2022-12-03T23:01:07.109Z,102212.13
2022-12-03T23:03:33.706Z,102212.97
2022-12-03T23:06:00.835Z,102208.00
2022-12-03T23:08:27.905Z,102204.41
2022-12-03T23:10:54.469Z,102210.31
2022-12-03T23:13:21.698Z,102207.91
2022-12-03T23:15:51.447Z,102214.88
2022-12-03T23:18:19.226Z,102209.69
2022-12-03T23:20:52.995Z,102214.88
2022-12-03T23:23:21.744Z,102209.59
2022-12-03T23:26:03.813Z,102208.09
2022-12-03T23:28:32.466Z,102214.03
2022-12-03T23:31:00.363Z,102216.88
2022-12-03T23:33:27.460Z,102218.47
2022-12-03T23:35:54.817Z,102222.91
2022-12-03T23:38:21.692Z,102196.84
2022-12-03T23:40:48.679Z,102208.09
2022-12-03T23:43:15.803Z,102203.81
2022-12-03T23:45:42.434Z,102203.56
2022-12-03T23:48:09.043Z,102208.84
2022-12-03T23:50:39.042Z,102195.03
2022-12-03T23:53:06.499Z,102201.09
2022-12-03T23:55:33.680Z,102189.66
2022-12-03T23:58:00.705Z,102197.50
